Time;durP1;ratioP1;P1;durP2;ratioP2;P2;SDS_P1;SDS_P2;PMS_P1;PMS_P2;Temp;Humidity;BMP_temperature;BMP_pressure;BME280_temperature;BME280_humidity;BME280_pressure;Samples;Min_cycle;Max_cycle;Signal;HPM_P1;HPM_P2
2023/02/25 00:01:49;;;;;;;15.93;3.37;;;3.90;99.90;;;;;;5070487;28;20064;-57
2023/02/25 00:04:15;;;;;;;21.63;3.17;;;3.90;99.90;;;;;;5070266;28;20028;-57
2023/02/25 00:06:41;;;;;;;18.07;2.50;;;3.80;99.90;;;;;;5070447;28;20028;-56
2023/02/25 00:09:10;;;;;;;16.97;2.63;;;3.80;99.90;;;;;;5070614;28;20387;-57
2023/02/25 00:11:36;;;;;;;25.35;3.72;;;3.70;99.90;;;;;;5070608;28;20131;-57
2023/02/25 00:14:01;;;;;;;15.57;3.03;;;3.70;99.90;;;;;;5070197;28;20043;-55
2023/02/25 00:16:27;;;;;;;18.77;3.50;;;3.60;99.90;;;;;;5070190;28;20028;-56
2023/02/25 00:18:56;;;;;;;23.50;4.20;;;3.70;99.90;;;;;;5069907;28;20491;-55
2023/02/25 00:21:23;;;;;;;18.80;2.60;;;3.70;99.90;;;;;;5070606;28;20024;-56
2023/02/25 00:23:50;;;;;;;25.10;3.40;;;3.70;99.90;;;;;;5070230;28;20075;-54
2023/02/25 00:26:16;;;;;;;18.10;3.10;;;3.70;99.90;;;;;;5070506;28;20035;-56
2023/02/25 00:28:43;;;;;;;27.33;4.13;;;3.70;99.90;;;;;;5070359;28;20025;-55
2023/02/25 00:31:12;;;;;;;18.60;3.07;;;3.70;99.90;;;;;;5070367;28;20043;-54
2023/02/25 00:33:40;;;;;;;;;;;3.70;99.90;;;;;;5052458;28;20028;-54
2023/02/25 00:36:13;;;;;;;18.07;2.90;;;3.70;99.90;;;;;;5052530;28;19965;-56
2023/02/25 00:38:39;;;;;;;19.43;3.23;;;3.70;99.90;;;;;;5070155;28;20060;-55
2023/02/25 00:41:13;;;;;;;21.97;3.13;;;3.80;99.90;;;;;;5070263;28;20021;-56
2023/02/25 00:43:41;;;;;;;17.10;2.73;;;3.70;99.90;;;;;;5051935;28;20040;-53
2023/02/25 00:46:10;;;;;;;17.80;2.87;;;3.80;99.90;;;;;;5070519;28;20037;-54
2023/02/25 00:48:37;;;;;;;19.57;3.30;;;3.70;99.90;;;;;;5051916;28;20131;-54
2023/02/25 00:51:09;;;;;;;17.23;4.20;;;3.70;99.90;;;;;;5052232;28;20039;-56
2023/02/25 00:53:36;;;;;;;15.63;2.93;;;3.70;99.90;;;;;;5069857;28;20405;-55
2023/02/25 00:56:05;;;;;;;12.17;2.30;;;3.60;99.90;;;;;;5070165;28;20025;-54
2023/02/25 00:58:33;;;;;;;16.55;2.70;;;3.60;99.90;;;;;;5069883;28;20025;-56
2023/02/25 01:01:00;;;;;;;11.97;2.57;;;3.70;99.90;;;;;;5070202;28;20017;-57
2023/02/25 01:03:26;;;;;;;18.60;3.03;;;3.70;99.90;;;;;;5069814;28;20024;-56
2023/02/25 01:05:52;;;;;;;13.77;2.63;;;3.60;99.90;;;;;;5070068;28;20128;-57
2023/02/25 01:08:19;;;;;;;14.53;2.53;;;3.60;99.90;;;;;;5051865;28;20564;-57
2023/02/25 01:10:46;;;;;;;14.07;2.57;;;3.60;99.90;;;;;;5069901;28;20123;-57
2023/02/25 01:13:13;;;;;;;14.63;2.43;;;3.60;99.90;;;;;;5069901;28;20411;-55
2023/02/25 01:15:38;;;;;;;18.37;2.70;;;3.60;99.90;;;;;;5069836;28;20025;-53
2023/02/25 01:18:04;;;;;;;18.73;2.93;;;3.60;99.90;;;;;;5069706;28;20040;-54
2023/02/25 01:20:30;;;;;;;19.83;2.50;;;3.60;99.90;;;;;;5069900;28;20024;-55
2023/02/25 01:22:56;;;;;;;18.03;2.30;;;3.70;99.90;;;;;;5069910;28;20029;-56
2023/02/25 01:25:24;;;;;;;15.13;2.40;;;3.70;99.90;;;;;;5069680;28;20461;-56
2023/02/25 01:27:54;;;;;;;14.90;2.73;;;3.70;99.90;;;;;;5069725;28;20119;-57
2023/02/25 01:30:21;;;;;;;15.07;2.30;;;3.70;99.90;;;;;;5070935;28;20036;-56
2023/02/25 01:32:46;;;;;;;16.10;2.00;;;3.70;99.90;;;;;;5055480;28;20400;-57
2023/02/25 01:35:12;;;;;;;12.40;1.77;;;3.60;99.90;;;;;;5073311;28;20033;-55
2023/02/25 01:37:38;;;;;;;16.93;2.10;;;3.60;99.90;;;;;;5073190;28;20048;-55
2023/02/25 01:40:04;;;;;;;13.53;2.37;;;3.60;99.90;;;;;;5055426;28;20038;-55
2023/02/25 01:42:32;;;;;;;14.27;2.43;;;3.60;99.90;;;;;;5073451;28;20081;-54
2023/02/25 01:45:16;;;;;;;19.67;2.87;;;3.50;99.90;;;;;;5055283;28;20397;-54
2023/02/25 01:47:46;;;;;;;18.03;3.10;;;3.50;99.90;;;;;;5073169;28;20020;-55
2023/02/25 01:50:12;;;;;;;13.93;1.93;;;3.50;99.90;;;;;;5055208;28;20477;-56
2023/02/25 01:52:40;;;;;;;16.47;2.57;;;3.50;99.90;;;;;;5055147;28;20035;-54
2023/02/25 01:55:08;;;;;;;18.40;2.53;;;3.50;99.90;;;;;;5073268;28;20153;-56
2023/02/25 01:57:33;;;;;;;16.40;2.60;;;3.50;99.90;;;;;;5055172;28;20481;-55
2023/02/25 01:59:59;;;;;;;13.73;2.90;;;3.50;99.90;;;;;;5055351;28;20081;-54
2023/02/25 02:02:28;;;;;;;17.53;2.40;;;3.50;99.90;;;;;;5055337;28;20094;-56
2023/02/25 02:04:54;;;;;;;12.43;2.33;;;3.50;99.90;;;;;;5055115;28;20063;-55
2023/02/25 02:07:23;;;;;;;17.57;2.80;;;3.50;99.90;;;;;;5073069;28;20032;-56
2023/02/25 02:09:55;;;;;;;8.88;1.92;;;3.40;99.90;;;;;;5073189;28;20031;-56
2023/02/25 02:12:24;;;;;;;21.63;2.70;;;3.40;99.90;;;;;;5055059;28;20109;-56
2023/02/25 02:14:50;;;;;;;19.65;2.97;;;3.40;99.90;;;;;;5072936;28;20031;-56
2023/02/25 02:17:28;;;;;;;16.37;2.50;;;3.30;99.90;;;;;;5054646;28;20036;-54
2023/02/25 02:20:08;;;;;;;18.47;2.30;;;3.30;99.90;;;;;;5072845;28;20056;-55
2023/02/25 02:22:50;;;;;;;18.53;2.63;;;3.40;99.90;;;;;;5072902;28;20039;-54
2023/02/25 02:25:34;;;;;;;15.73;2.50;;;3.40;99.90;;;;;;5054639;28;20036;-55
2023/02/25 02:28:35;;;;;;;13.83;2.07;;;3.40;99.90;;;;;;5072415;28;20029;-56
2023/02/25 02:31:03;;;;;;;17.93;2.37;;;3.40;99.90;;;;;;5072715;28;20035;-55
2023/02/25 02:33:44;;;;;;;15.60;2.70;;;3.50;99.90;;;;;;5071919;28;20024;-55
2023/02/25 02:36:29;;;;;;;17.03;2.77;;;3.50;99.90;;;;;;5072379;28;20396;-55
2023/02/25 02:39:10;;;;;;;25.07;2.73;;;3.50;99.90;;;;;;5054343;28;20024;-55
2023/02/25 02:41:41;;;;;;;20.87;3.37;;;3.50;99.90;;;;;;5071950;28;20086;-57
2023/02/25 02:44:20;;;;;;;18.47;2.53;;;3.60;99.90;;;;;;5072220;28;20052;-56
2023/02/25 02:47:24;;;;;;;17.17;2.57;;;3.50;99.90;;;;;;5054120;28;20056;-54
2023/02/25 02:50:06;;;;;;;16.37;2.73;;;3.50;99.90;;;;;;5010089;28;20033;-57
2023/02/25 02:52:37;;;;;;;22.77;3.13;;;3.50;99.90;;;;;;5065874;28;20501;-55
2023/02/25 02:55:21;;;;;;;16.87;2.67;;;3.50;99.90;;;;;;5071851;28;20029;-54
2023/02/25 02:57:57;;;;;;;17.90;2.67;;;3.50;99.90;;;;;;5053838;28;20101;-55
2023/02/25 03:00:29;;;;;;;22.27;2.93;;;3.50;99.90;;;;;;5071843;28;20436;-55
2023/02/25 03:03:01;;;;;;;15.60;2.80;;;3.60;99.90;;;;;;5053761;28;20025;-56
2023/02/25 03:05:28;;;;;;;19.37;2.57;;;3.60;99.90;;;;;;5071752;28;20039;-56
2023/02/25 03:08:11;;;;;;;21.50;3.33;;;3.60;99.90;;;;;;5071489;28;20028;-55
2023/02/25 03:10:37;;;;;;;15.23;2.03;;;3.60;99.90;;;;;;5053783;28;20032;-56
2023/02/25 03:13:03;;;;;;;23.03;2.77;;;3.60;99.90;;;;;;5053558;28;20393;-57
2023/02/25 03:15:31;;;;;;;16.60;2.20;;;3.60;99.90;;;;;;5053812;28;20116;-56
2023/02/25 03:18:19;;;;;;;15.63;2.20;;;3.60;99.90;;;;;;5071244;28;20067;-56
2023/02/25 03:20:49;;;;;;;21.27;2.50;;;3.60;99.90;;;;;;5053070;28;20465;-55
2023/02/25 03:23:21;;;;;;;18.80;3.13;;;3.60;99.90;;;;;;5071417;28;20032;-54
2023/02/25 03:25:58;;;;;;;20.83;2.80;;;3.60;99.90;;;;;;5071451;28;20112;-56
2023/02/25 03:28:24;;;;;;;15.97;2.40;;;3.60;99.90;;;;;;5053233;28;20082;-55
2023/02/25 03:30:54;;;;;;;17.17;2.53;;;3.60;99.90;;;;;;5071175;28;20040;-55
2023/02/25 03:33:31;;;;;;;20.77;3.03;;;3.60;99.90;;;;;;5052821;28;20052;-55
2023/02/25 03:35:59;;;;;;;21.50;2.43;;;3.60;99.90;;;;;;5071174;28;20031;-55
2023/02/25 03:38:29;;;;;;;17.00;2.80;;;3.60;99.90;;;;;;5052826;28;20055;-55
2023/02/25 03:40:58;;;;;;;15.27;2.20;;;3.60;99.90;;;;;;5071216;28;20020;-56
2023/02/25 03:43:32;;;;;;;13.40;1.92;;;3.60;99.90;;;;;;5053031;28;20493;-56
2023/02/25 03:45:59;;;;;;;15.77;2.57;;;3.60;99.90;;;;;;5071041;28;20028;-54
2023/02/25 03:48:26;;;;;;;21.03;2.60;;;3.60;99.90;;;;;;5052866;28;20439;-54
2023/02/25 03:50:58;;;;;;;18.73;2.70;;;3.60;99.90;;;;;;5052884;28;20552;-55
2023/02/25 03:53:28;;;;;;;21.40;2.83;;;3.60;99.90;;;;;;5051837;28;20037;-54
2023/02/25 03:56:09;;;;;;;27.00;3.20;;;3.60;99.90;;;;;;5053084;28;20024;-55
2023/02/25 03:58:39;;;;;;;28.70;3.17;;;3.60;99.90;;;;;;5052706;28;20035;-56
2023/02/25 04:01:10;;;;;;;13.47;2.30;;;3.60;99.90;;;;;;5052804;28;20024;-56
2023/02/25 04:03:36;;;;;;;21.43;2.30;;;3.60;99.90;;;;;;5052677;28;20036;-55
2023/02/25 04:06:03;;;;;;;23.07;3.07;;;3.60;99.90;;;;;;5052825;28;20052;-56
2023/02/25 04:08:28;;;;;;;13.93;2.50;;;3.70;99.90;;;;;;5052742;28;20452;-55
2023/02/25 04:10:54;;;;;;;11.13;2.00;;;3.70;99.90;;;;;;5070665;28;20060;-56
2023/02/25 04:13:21;;;;;;;16.60;2.60;;;3.70;99.90;;;;;;5052274;28;20028;-55
2023/02/25 04:15:48;;;;;;;13.70;2.80;;;3.70;99.90;;;;;;5052624;28;20025;-54
2023/02/25 04:18:14;;;;;;;15.83;2.40;;;3.70;99.90;;;;;;5052440;28;20576;-55
2023/02/25 04:20:41;;;;;;;16.90;2.40;;;3.70;99.90;;;;;;5070712;28;20358;-54
2023/02/25 04:23:10;;;;;;;13.60;2.27;;;3.70;99.90;;;;;;5052425;28;20085;-56
2023/02/25 04:25:36;;;;;;;14.73;2.03;;;3.70;99.90;;;;;;5070395;28;20039;-55
2023/02/25 04:28:02;;;;;;;14.57;2.20;;;3.80;99.90;;;;;;5070266;28;20500;-54
2023/02/25 04:30:27;;;;;;;10.93;2.20;;;3.70;99.90;;;;;;5070353;28;20238;-53
2023/02/25 04:32:53;;;;;;;17.87;2.17;;;3.70;99.90;;;;;;5082993;22;20240;-58
2023/02/25 04:35:19;;;;;;;10.63;1.90;;;3.80;99.90;;;;;;5069954;28;20031;-58
2023/02/25 04:37:44;;;;;;;17.40;2.30;;;3.80;99.90;;;;;;5070341;28;20040;-57
2023/02/25 04:40:18;;;;;;;18.17;2.30;;;3.80;99.90;;;;;;5070277;28;20112;-58
2023/02/25 04:42:44;;;;;;;15.63;2.47;;;3.70;99.90;;;;;;5070272;28;20197;-57
2023/02/25 04:45:11;;;;;;;11.87;2.30;;;3.70;99.90;;;;;;5069999;28;20039;-58
2023/02/25 04:47:37;;;;;;;19.50;2.27;;;3.70;99.90;;;;;;5070070;28;20543;-58
2023/02/25 04:50:04;;;;;;;11.07;2.50;;;3.70;99.90;;;;;;5070237;28;20036;-58
2023/02/25 04:52:30;;;;;;;19.97;2.17;;;3.70;99.90;;;;;;5070146;28;20028;-58
2023/02/25 04:54:56;;;;;;;13.27;2.30;;;3.70;99.90;;;;;;5069819;28;20055;-57
2023/02/25 04:57:21;;;;;;;16.47;2.77;;;3.70;99.90;;;;;;5069700;28;20028;-58
2023/02/25 04:59:47;;;;;;;18.53;2.50;;;3.70;99.90;;;;;;5069901;28;20024;-57
2023/02/25 05:02:13;;;;;;;14.43;1.87;;;3.70;99.90;;;;;;5070145;28;20020;-58
2023/02/25 05:04:40;;;;;;;17.60;2.50;;;3.70;99.90;;;;;;5071674;28;20497;-57
2023/02/25 05:07:06;;;;;;;18.70;2.47;;;3.70;99.90;;;;;;5073848;28;20028;-57
2023/02/25 05:09:33;;;;;;;14.10;2.30;;;3.70;99.90;;;;;;5073909;28;20090;-57
2023/02/25 05:11:59;;;;;;;18.63;2.13;;;3.70;99.90;;;;;;5073967;28;20048;-58
2023/02/25 05:14:25;;;;;;;17.83;2.73;;;3.70;99.90;;;;;;5073052;28;20050;-58
2023/02/25 05:16:50;;;;;;;14.43;2.60;;;3.70;99.90;;;;;;5073579;28;20032;-58
2023/02/25 05:19:21;;;;;;;20.67;2.60;;;3.70;99.90;;;;;;5073483;28;20500;-58
2023/02/25 05:21:48;;;;;;;19.47;2.80;;;3.70;99.90;;;;;;5073809;28;20427;-58
2023/02/25 05:24:14;;;;;;;18.40;3.03;;;3.70;99.90;;;;;;5073358;28;20032;-58
2023/02/25 05:26:40;;;;;;;14.43;1.83;;;3.70;99.90;;;;;;5073362;28;20021;-57
2023/02/25 05:29:06;;;;;;;18.97;2.73;;;3.60;99.90;;;;;;5073291;28;20428;-58
2023/02/25 05:31:32;;;;;;;21.13;2.67;;;3.60;99.90;;;;;;5073487;28;20033;-57
2023/02/25 05:33:58;;;;;;;18.73;2.60;;;3.50;99.90;;;;;;5073032;28;20499;-57
2023/02/25 05:36:24;;;;;;;20.43;3.23;;;3.50;99.90;;;;;;5073336;28;20036;-58
2023/02/25 05:38:52;;;;;;;22.77;2.57;;;3.50;99.90;;;;;;5073313;28;20032;-57
2023/02/25 05:41:18;;;;;;;18.40;2.87;;;3.50;99.90;;;;;;5073332;28;20473;-58
2023/02/25 05:43:44;;;;;;;15.07;2.23;;;3.50;99.90;;;;;;5072868;28;20046;-57
2023/02/25 05:46:12;;;;;;;20.50;2.77;;;3.50;99.90;;;;;;5073472;28;20036;-57
2023/02/25 05:48:45;;;;;;;21.20;3.27;;;3.50;99.90;;;;;;5073072;28;20366;-57
2023/02/25 05:51:17;;;;;;;15.07;2.10;;;3.50;99.90;;;;;;5073788;28;20085;-58
2023/02/25 05:53:43;;;;;;;15.33;2.17;;;3.50;99.90;;;;;;5075197;28;20037;-58
2023/02/25 05:56:14;;;;;;;24.33;3.20;;;3.60;99.90;;;;;;5076907;28;20086;-58
2023/02/25 05:58:40;;;;;;;16.87;3.03;;;3.60;99.90;;;;;;5073227;28;20031;-58
2023/02/25 06:01:10;;;;;;;21.07;2.63;;;3.60;99.90;;;;;;5074152;28;20033;-58
2023/02/25 06:03:37;;;;;;;20.77;2.30;;;3.60;99.90;;;;;;5073256;28;20169;-57
2023/02/25 06:06:03;;;;;;;19.97;2.73;;;3.70;99.90;;;;;;5073062;28;20075;-57
2023/02/25 06:08:29;;;;;;;14.67;2.60;;;3.70;99.90;;;;;;5072711;28;20036;-58
2023/02/25 06:10:54;;;;;;;24.07;2.60;;;3.70;99.90;;;;;;5072786;28;20032;-58
2023/02/25 06:13:20;;;;;;;20.80;3.23;;;3.70;99.90;;;;;;5072367;28;20033;-58
2023/02/25 06:15:46;;;;;;;16.33;3.00;;;3.70;99.90;;;;;;5072068;28;20055;-58
2023/02/25 06:18:11;;;;;;;18.43;2.60;;;3.70;99.90;;;;;;5072574;28;20288;-58
2023/02/25 06:20:37;;;;;;;13.63;2.07;;;3.70;99.90;;;;;;5072631;28;20490;-58
2023/02/25 06:23:03;;;;;;;17.10;2.60;;;3.70;99.90;;;;;;5072421;28;20029;-58
2023/02/25 06:25:31;;;;;;;25.60;3.13;;;3.70;99.90;;;;;;5072280;28;20044;-58
2023/02/25 06:28:00;;;;;;;16.87;2.20;;;3.70;99.90;;;;;;5072437;28;20447;-58
2023/02/25 06:30:28;;;;;;;22.35;3.00;;;3.70;99.90;;;;;;5072397;28;20485;-58
2023/02/25 06:32:53;;;;;;;13.90;2.07;;;3.70;99.90;;;;;;5072079;28;20092;-58
2023/02/25 06:35:22;;;;;;;17.67;2.53;;;3.60;99.90;;;;;;5072222;28;20483;-58
2023/02/25 06:37:55;;;;;;;18.10;2.80;;;3.60;99.90;;;;;;5072063;28;20051;-57
2023/02/25 06:40:21;;;;;;;18.73;2.60;;;3.60;99.90;;;;;;5072238;28;20254;-57
2023/02/25 06:42:47;;;;;;;21.63;3.00;;;3.70;99.90;;;;;;5072112;28;20439;-57
2023/02/25 06:45:13;;;;;;;19.10;2.57;;;3.70;99.90;;;;;;5071918;28;20032;-57
2023/02/25 06:47:38;;;;;;;18.23;2.40;;;3.60;99.90;;;;;;5071911;28;20158;-58
2023/02/25 06:50:05;;;;;;;17.30;2.77;;;3.80;99.90;;;;;;5071985;28;20518;-58
2023/02/25 06:52:31;;;;;;;16.73;2.40;;;3.80;99.90;;;;;;5071912;28;20043;-58
2023/02/25 06:54:56;;;;;;;16.87;2.90;;;3.70;99.90;;;;;;5071757;28;20366;-58
2023/02/25 06:57:22;;;;;;;14.43;2.37;;;3.80;99.90;;;;;;5071789;28;20055;-57
2023/02/25 06:59:48;;;;;;;19.23;2.63;;;3.80;99.90;;;;;;5071800;28;20537;-57
2023/02/25 07:02:14;;;;;;;22.53;2.83;;;3.80;99.90;;;;;;5071785;28;20024;-57
2023/02/25 07:04:40;;;;;;;15.87;2.30;;;3.80;99.90;;;;;;5071545;28;20024;-57
2023/02/25 07:07:06;;;;;;;18.00;2.13;;;3.80;99.90;;;;;;5071435;28;20514;-57
2023/02/25 07:09:32;;;;;;;14.40;2.37;;;3.80;99.90;;;;;;5071594;28;20035;-57
2023/02/25 07:11:57;;;;;;;17.00;2.77;;;3.80;99.90;;;;;;5071677;28;20418;-57
2023/02/25 07:14:23;;;;;;;27.50;3.87;;;3.90;99.90;;;;;;5071295;28;20028;-58
2023/02/25 07:16:49;;;;;;;13.87;2.30;;;3.90;99.90;;;;;;5071324;28;20534;-57
2023/02/25 07:19:15;;;;;;;11.80;1.90;;;3.90;99.90;;;;;;5053510;28;20021;-57
2023/02/25 07:21:42;;;;;;;19.77;2.70;;;4.00;99.90;;;;;;5071444;28;20074;-57
2023/02/25 07:24:09;;;;;;;16.90;2.97;;;4.00;99.90;;;;;;5071358;28;20048;-57
2023/02/25 07:26:35;;;;;;;21.63;3.17;;;4.00;99.90;;;;;;5071125;28;20060;-57
2023/02/25 07:29:01;;;;;;;13.37;2.53;;;4.00;99.90;;;;;;5071141;28;20082;-57
2023/02/25 07:31:28;;;;;;;15.37;2.70;;;4.10;99.90;;;;;;5071272;28;20040;-57
2023/02/25 07:33:54;;;;;;;15.83;2.17;;;4.10;99.90;;;;;;5070824;28;20040;-57
2023/02/25 07:36:20;;;;;;;20.87;2.63;;;4.20;99.90;;;;;;5070982;28;20104;-57
2023/02/25 07:38:47;;;;;;;20.93;3.07;;;4.10;99.90;;;;;;5070896;28;20171;-57
2023/02/25 07:41:16;;;;;;;22.53;2.80;;;4.10;99.90;;;;;;5071049;28;20029;-57
2023/02/25 07:43:42;;;;;;;16.70;3.03;;;4.10;99.90;;;;;;5070828;28;20061;-57
2023/02/25 07:46:09;;;;;;;16.43;2.47;;;4.10;99.90;;;;;;5071035;28;20123;-57
2023/02/25 07:48:35;;;;;;;23.63;3.27;;;4.10;99.90;;;;;;5070573;28;20034;-57
2023/02/25 07:51:09;;;;;;;19.47;3.10;;;4.10;99.90;;;;;;5070970;28;20032;-58
2023/02/25 07:53:36;;;;;;;20.17;3.13;;;4.20;99.90;;;;;;5070709;28;20388;-58
2023/02/25 07:56:02;;;;;;;18.07;2.43;;;4.20;99.90;;;;;;5071077;28;20094;-58
2023/02/25 07:58:28;;;;;;;19.70;2.43;;;4.20;99.90;;;;;;5070689;28;20036;-57
2023/02/25 08:00:54;;;;;;;23.77;2.93;;;4.20;99.90;;;;;;5070852;28;20028;-57
2023/02/25 08:03:20;;;;;;;22.67;2.87;;;4.30;99.90;;;;;;5070489;28;20477;-58
2023/02/25 08:05:50;;;;;;;24.50;2.93;;;4.20;99.90;;;;;;5070783;28;20154;-58
2023/02/25 08:08:16;;;;;;;19.53;3.03;;;4.20;99.90;;;;;;5070482;28;20074;-57
2023/02/25 08:10:42;;;;;;;21.53;3.20;;;4.20;99.90;;;;;;5070582;28;20060;-57
2023/02/25 08:13:08;;;;;;;16.83;3.30;;;4.10;99.90;;;;;;5070929;28;20075;-58
2023/02/25 08:15:33;;;;;;;17.97;3.50;;;4.00;99.90;;;;;;5070294;28;20029;-58
2023/02/25 08:17:59;;;;;;;23.50;3.77;;;3.90;99.90;;;;;;5070681;28;20035;-58
2023/02/25 08:20:25;;;;;;;17.83;3.43;;;3.90;99.90;;;;;;5070542;28;20679;-58
2023/02/25 08:22:51;;;;;;;19.90;3.00;;;3.90;99.90;;;;;;5070419;28;20090;-57
2023/02/25 08:25:16;;;;;;;20.50;3.73;;;3.90;99.90;;;;;;5070283;28;20040;-58
2023/02/25 08:27:43;;;;;;;20.20;3.43;;;4.00;99.90;;;;;;5070223;28;20037;-58
2023/02/25 08:30:09;;;;;;;18.80;3.37;;;4.10;99.90;;;;;;5070443;28;20120;-58
2023/02/25 08:32:36;;;;;;;21.60;3.20;;;4.10;99.90;;;;;;5070254;28;20099;-57
2023/02/25 08:35:02;;;;;;;20.20;3.40;;;4.30;99.90;;;;;;5070306;28;20081;-57
2023/02/25 08:37:28;;;;;;;22.90;3.50;;;4.40;99.90;;;;;;5070233;28;20401;-58
2023/02/25 08:39:56;;;;;;;18.47;3.20;;;4.50;99.90;;;;;;5074551;28;20085;-58
2023/02/25 08:42:23;;;;;;;24.57;3.30;;;4.60;99.90;;;;;;5077085;28;20028;-57
2023/02/25 08:44:49;;;;;;;22.53;3.87;;;4.70;99.90;;;;;;5076761;28;20103;-58
2023/02/25 08:47:15;;;;;;;20.73;5.33;;;4.80;99.90;;;;;;5058810;28;20769;-57
2023/02/25 08:49:41;;;;;;;20.27;4.47;;;4.90;99.90;;;;;;5076869;28;20036;-58
2023/02/25 08:52:10;;;;;;;26.37;5.30;;;5.10;99.90;;;;;;5076846;28;20115;-58
2023/02/25 08:54:37;;;;;;;20.88;3.85;;;5.20;99.90;;;;;;5076668;28;20032;-58
2023/02/25 08:57:03;;;;;;;19.57;3.60;;;5.30;99.90;;;;;;5076656;28;20078;-58
2023/02/25 08:59:34;;;;;;;14.17;2.87;;;5.40;99.90;;;;;;5076743;28;20025;-57
2023/02/25 09:02:05;;;;;;;15.03;2.63;;;5.60;99.90;;;;;;5076984;28;20028;-58
2023/02/25 09:04:32;;;;;;;13.83;2.70;;;5.70;99.90;;;;;;5076707;28;20036;-58
2023/02/25 09:06:59;;;;;;;11.83;2.63;;;5.90;99.90;;;;;;5076557;28;20123;-58
2023/02/25 09:09:25;;;;;;;16.80;2.80;;;5.90;99.90;;;;;;5076737;28;20086;-58
2023/02/25 09:11:52;;;;;;;18.43;3.00;;;5.70;99.90;;;;;;5076649;28;20024;-58
2023/02/25 09:14:18;;;;;;;13.73;3.03;;;5.60;99.90;;;;;;5076433;28;20443;-58
2023/02/25 09:16:44;;;;;;;12.13;3.40;;;5.50;99.90;;;;;;5076555;28;20029;-58
2023/02/25 09:19:11;;;;;;;16.70;4.67;;;5.50;99.90;;;;;;5076702;28;20115;-58
2023/02/25 09:21:40;;;;;;;14.77;3.30;;;5.40;99.90;;;;;;5076710;28;20044;-57
2023/02/25 09:24:07;;;;;;;;;;;5.50;99.90;;;;;;5076974;28;20032;-57
2023/02/25 09:26:33;;;;;;;14.60;3.50;;;5.50;99.90;;;;;;5076802;28;19908;-57
2023/02/25 09:28:59;;;;;;;13.33;3.77;;;5.50;99.90;;;;;;5076605;28;20028;-58
2023/02/25 09:31:25;;;;;;;10.77;2.33;;;5.50;99.90;;;;;;5076549;28;20040;-57
2023/02/25 09:33:51;;;;;;;11.67;1.97;;;5.50;99.90;;;;;;5076117;28;20032;-57
2023/02/25 09:36:19;;;;;;;9.27;1.93;;;5.40;99.90;;;;;;5076308;28;20025;-57
2023/02/25 09:38:46;;;;;;;10.67;1.67;;;5.20;99.90;;;;;;5058286;28;20166;-57
2023/02/25 09:41:43;;;;;;;11.20;2.17;;;5.20;99.90;;;;;;5076164;28;20109;-57
2023/02/25 09:44:27;;;;;;;13.83;2.80;;;5.00;99.90;;;;;;5076133;28;20086;-57
2023/02/25 09:47:18;;;;;;;11.53;2.00;;;4.90;99.90;;;;;;5076364;28;20488;-57
2023/02/25 09:49:54;;;;;;;11.33;1.87;;;5.00;99.90;;;;;;5076503;28;20040;-57
2023/02/25 09:52:23;;;;;;;9.53;2.07;;;4.70;99.90;;;;;;5072337;28;20074;-57
2023/02/25 09:55:02;;;;;;;10.95;1.60;;;4.70;99.90;;;;;;5073080;28;20040;-57
2023/02/25 09:57:31;;;;;;;10.82;2.20;;;4.60;99.90;;;;;;5073226;28;20392;-57
2023/02/25 09:59:58;;;;;;;13.88;2.33;;;4.50;99.90;;;;;;5073310;28;20476;-58
2023/02/25 10:02:36;;;;;;;9.57;1.40;;;4.40;99.90;;;;;;5073291;28;20036;-57
2023/02/25 10:05:06;;;;;;;5.93;1.30;;;4.20;99.90;;;;;;5073143;28;20056;-57
2023/02/25 10:07:35;;;;;;;6.83;1.20;;;4.10;99.90;;;;;;5072874;28;20067;-57
2023/02/25 10:10:42;;;;;;;6.70;1.02;;;3.80;99.90;;;;;;5073236;28;20385;-57
2023/02/25 10:13:41;;;;;;;3.60;0.80;;;3.50;99.90;;;;;;5022593;28;20374;-57
2023/02/25 10:16:21;;;;;;;7.63;0.93;;;3.30;99.90;;;;;;5073118;28;20033;-57
2023/02/25 10:18:50;;;;;;;5.67;1.00;;;3.10;99.90;;;;;;5072907;28;20028;-57
2023/02/25 10:21:43;;;;;;;5.03;1.05;;;3.10;99.90;;;;;;5054963;28;20555;-57
2023/02/25 10:24:08;;;;;;;5.77;0.90;;;3.30;99.90;;;;;;5072688;28;20036;-57
2023/02/25 10:26:40;;;;;;;5.53;1.10;;;3.50;99.90;;;;;;5072701;28;20055;-56
2023/02/25 10:29:11;;;;;;;3.70;1.03;;;3.60;99.90;;;;;;5072779;28;20036;-56
2023/02/25 10:31:38;;;;;;;6.60;1.20;;;3.70;99.90;;;;;;5073043;28;20094;-58
2023/02/25 10:34:18;;;;;;;7.97;1.33;;;3.80;99.90;;;;;;5085152;22;20040;-52
2023/02/25 10:36:51;;;;;;;4.47;1.00;;;4.10;99.90;;;;;;5072514;28;20508;-54
2023/02/25 10:39:16;;;;;;;6.40;1.17;;;4.50;99.90;;;;;;5072762;28;20035;-52
2023/02/25 10:41:42;;;;;;;6.67;1.23;;;5.20;99.90;;;;;;5072727;28;20024;-55
2023/02/25 10:44:11;;;;;;;9.63;1.90;;;6.30;99.90;;;;;;5072419;28;20107;-51
2023/02/25 10:46:54;;;;;;;15.27;4.85;;;7.00;99.90;;;;;;5072358;28;20054;-51
2023/02/25 10:49:24;;;;;;;7.00;1.13;;;7.60;99.90;;;;;;5072570;28;20111;-55
2023/02/25 10:52:12;;;;;;;4.97;1.40;;;8.50;99.90;;;;;;5072372;28;20039;-54
2023/02/25 10:54:56;;;;;;;7.22;1.77;;;9.90;99.90;;;;;;5072028;28;20063;-55
2023/02/25 10:57:40;;;;;;;4.93;1.30;;;11.10;99.90;;;;;;5072275;28;20393;-56
2023/02/25 11:00:31;;;;;;;5.75;1.63;;;11.40;99.90;;;;;;5072420;28;20468;-56
2023/02/25 11:03:00;;;;;;;5.28;1.38;;;11.30;99.90;;;;;;5071848;28;20040;-56
2023/02/25 11:05:42;;;;;;;7.45;1.77;;;11.00;99.90;;;;;;5072075;28;20030;-52
2023/02/25 11:08:31;;;;;;;6.70;1.50;;;10.10;99.90;;;;;;5071818;28;20044;-55
2023/02/25 11:11:02;;;;;;;;;;;10.10;99.90;;;;;;5073015;28;20089;-54
2023/02/25 11:13:30;;;;;;;8.07;1.50;;;10.00;99.90;;;;;;5071705;28;19913;-53
2023/02/25 11:16:01;;;;;;;7.72;1.50;;;9.30;99.90;;;;;;5072007;28;20025;-54
2023/02/25 11:18:30;;;;;;;5.97;1.20;;;8.70;99.90;;;;;;5071881;28;20028;-54
2023/02/25 11:20:58;;;;;;;;;;;8.60;99.90;;;;;;5072358;28;20036;-56
2023/02/25 11:23:38;;;;;;;11.03;1.70;;;8.90;99.90;;;;;;5071657;28;19912;-55
2023/02/25 11:26:06;;;;;;;6.45;1.38;;;9.30;99.90;;;;;;5071763;28;20052;-54
2023/02/25 11:28:42;;;;;;;9.17;1.40;;;9.30;99.90;;;;;;5071547;28;20029;-54
2023/02/25 11:31:16;;;;;;;5.25;1.00;;;9.50;99.90;;;;;;5072135;28;20462;-57
2023/02/25 11:33:51;;;;;;;9.57;1.30;;;9.40;99.90;;;;;;5071083;28;20039;-53
2023/02/25 11:36:28;;;;;;;6.57;1.03;;;9.40;99.90;;;;;;5071446;28;20025;-53
2023/02/25 11:39:23;;;;;;;7.40;1.35;;;9.50;99.90;;;;;;5071647;28;20028;-53
2023/02/25 11:41:51;;;;;;;4.90;1.10;;;9.40;99.90;;;;;;5071437;28;20407;-54
2023/02/25 11:44:23;;;;;;;8.57;1.23;;;9.50;99.90;;;;;;5071184;28;20037;-55
2023/02/25 11:47:00;;;;;;;6.13;1.33;;;9.70;99.90;;;;;;5071151;28;20036;-54
2023/02/25 11:49:35;;;;;;;6.63;1.17;;;9.50;99.90;;;;;;5071256;28;20090;-55
2023/02/25 11:52:12;;;;;;;4.80;1.05;;;10.20;99.90;;;;;;5071134;28;20393;-54
2023/02/25 11:55:04;;;;;;;5.03;0.98;;;10.60;99.10;;;;;;5070642;28;20032;-55
2023/02/25 11:57:48;;;;;;;6.93;1.23;;;10.80;98.40;;;;;;5047087;28;20075;-56
2023/02/25 12:00:24;;;;;;;9.13;1.55;;;10.40;99.20;;;;;;5070957;28;20392;-56
2023/02/25 12:02:58;;;;;;;7.03;1.63;;;10.00;99.90;;;;;;5070652;28;20027;-53
2023/02/25 12:05:51;;;;;;;9.57;1.70;;;10.10;99.90;;;;;;5070806;28;20419;-51
2023/02/25 12:08:31;;;;;;;8.57;1.13;;;9.60;99.50;;;;;;5070785;28;20039;-54
2023/02/25 12:11:19;;;;;;;8.13;2.23;;;8.90;99.90;;;;;;5070851;28;20480;-53
2023/02/25 12:14:17;;;;;;;6.77;1.30;;;8.00;99.90;;;;;;5070061;28;20416;-55
2023/02/25 12:16:59;;;;;;;6.95;1.45;;;7.30;99.90;;;;;;5070830;28;20369;-54
2023/02/25 12:19:35;;;;;;;6.70;1.70;;;7.50;99.90;;;;;;5070825;28;20029;-54
2023/02/25 12:22:51;;;;;;;7.70;1.30;;;8.60;99.90;;;;;;5070905;28;20554;-55
2023/02/25 12:25:29;;;;;;;6.53;1.40;;;9.50;99.00;;;;;;5070819;28;20032;-57
2023/02/25 12:28:31;;;;;;;5.70;1.48;;;9.90;98.30;;;;;;5070504;28;20021;-54
2023/02/25 12:31:22;;;;;;;8.95;1.58;;;9.00;97.50;;;;;;5071053;28;20044;-50
2023/02/25 12:33:56;;;;;;;8.53;1.73;;;8.90;98.80;;;;;;5070118;28;20043;-53
2023/02/25 12:36:34;;;;;;;8.70;1.60;;;9.40;97.80;;;;;;5070608;28;20043;-53
2023/02/25 12:39:17;;;;;;;8.60;1.50;;;9.80;96.60;;;;;;5070658;28;20028;-55
2023/02/25 12:41:48;;;;;;;6.53;1.63;;;9.70;93.40;;;;;;5070816;28;20086;-56
2023/02/25 12:44:35;;;;;;;8.43;1.50;;;9.50;94.60;;;;;;5070420;28;20112;-53
2023/02/25 12:47:07;;;;;;;9.17;1.47;;;9.70;95.20;;;;;;5070673;28;20041;-55
2023/02/25 12:49:38;;;;;;;6.53;1.20;;;9.00;93.80;;;;;;5070823;28;20032;-55
2023/02/25 12:52:10;;;;;;;11.03;1.73;;;8.50;95.00;;;;;;5070676;28;20032;-55
2023/02/25 12:54:37;;;;;;;8.83;1.30;;;8.40;96.00;;;;;;5070345;28;20040;-52
2023/02/25 12:57:18;;;;;;;5.30;1.40;;;8.10;95.60;;;;;;5070259;28;20024;-54
2023/02/25 12:59:49;;;;;;;8.33;1.93;;;7.60;95.00;;;;;;5070486;28;20032;-54
2023/02/25 13:02:33;;;;;;;4.20;1.50;;;7.20;93.30;;;;;;5070545;28;20046;-51
2023/02/25 13:04:59;;;;;;;5.40;1.10;;;7.00;94.70;;;;;;5052520;28;20036;-54
2023/02/25 13:07:34;;;;;;;7.40;1.37;;;7.10;94.20;;;;;;5070271;28;20119;-53
2023/02/25 13:10:30;;;;;;;7.27;2.00;;;7.30;94.50;;;;;;5070443;28;20491;-56